createdAt,value
2023-03-02T00:01:03.097Z,18.83
2023-03-02T00:03:31.034Z,20.60
2023-03-02T00:05:59.423Z,18.02
2023-03-02T00:08:27.740Z,19.05
2023-03-02T00:10:56.608Z,15.95
2023-03-02T00:13:23.563Z,17.80
2023-03-02T00:15:50.187Z,17.65
2023-03-02T00:18:16.635Z,18.83
2023-03-02T00:20:43.204Z,18.25
2023-03-02T00:23:09.748Z,15.48
2023-03-02T00:25:36.409Z,19.27
2023-03-02T00:28:03.588Z,16.23
2023-03-02T00:30:30.198Z,17.25
2023-03-02T00:32:58.471Z,15.23
2023-03-02T00:35:27.103Z,16.70
2023-03-02T00:37:53.679Z,15.38
2023-03-02T00:40:20.543Z,18.60
2023-03-02T00:42:47.166Z,15.07
2023-03-02T00:45:13.699Z,18.52
2023-03-02T00:47:41.575Z,18.75
2023-03-02T00:50:09.515Z,15.82
2023-03-02T00:52:36.095Z,18.92
2023-03-02T00:55:02.695Z,14.98
2023-03-02T00:57:29.222Z,17.40
2023-03-02T00:59:55.751Z,16.20
2023-03-02T01:02:22.274Z,18.20
2023-03-02T01:04:49.439Z,14.95
2023-03-02T01:07:18.343Z,18.73
2023-03-02T01:09:45.901Z,16.17
2023-03-02T01:12:12.495Z,18.27
2023-03-02T01:14:42.575Z,15.57
2023-03-02T01:19:37.235Z,19.65
2023-03-02T01:22:03.806Z,19.65
2023-03-02T01:24:30.561Z,15.43
2023-03-02T01:26:57.082Z,20.75
2023-03-02T01:29:23.782Z,14.95
2023-03-02T01:31:50.358Z,18.20
2023-03-02T01:34:16.979Z,20.17
2023-03-02T01:36:46.058Z,20.30
2023-03-02T01:39:16.415Z,18.55
2023-03-02T01:41:44.221Z,19.88
2023-03-02T01:44:37.086Z,20.55
2023-03-02T01:47:17.282Z,20.02
2023-03-02T01:54:42.842Z,19.58
2023-03-02T01:57:10.825Z,18.77
2023-03-02T01:59:39.312Z,18.98
2023-03-02T02:02:08.987Z,18.02
2023-03-02T02:04:39.753Z,14.98
2023-03-02T02:07:09.204Z,19.92
2023-03-02T02:09:40.600Z,19.05
2023-03-02T02:12:13.607Z,18.75
2023-03-02T02:14:41.161Z,18.67
2023-03-02T02:17:08.387Z,15.48
2023-03-02T02:20:07.312Z,19.40
2023-03-02T02:22:46.530Z,19.08
2023-03-02T02:25:42.389Z,15.53
2023-03-02T02:28:25.193Z,17.98
2023-03-02T02:31:13.555Z,18.17
2023-03-02T02:33:43.537Z,18.45
2023-03-02T02:36:23.729Z,15.57
2023-03-02T02:41:22.552Z,18.00
2023-03-02T02:43:49.829Z,16.67
2023-03-02T02:46:16.662Z,18.10
2023-03-02T02:48:43.145Z,18.08
2023-03-02T02:51:17.920Z,18.70
2023-03-02T02:53:59.049Z,17.73
2023-03-02T02:56:32.359Z,15.82
2023-03-02T02:59:20.750Z,16.60
2023-03-02T03:01:49.175Z,17.88
2023-03-02T03:04:20.944Z,14.95
2023-03-02T03:06:54.265Z,17.50
2023-03-02T03:09:21.591Z,18.75
2023-03-02T03:11:57.038Z,18.02
2023-03-02T03:14:35.788Z,17.23
2023-03-02T03:17:02.719Z,14.50
2023-03-02T03:19:31.984Z,17.45
2023-03-02T03:22:01.315Z,14.23
2023-03-02T03:24:29.463Z,14.77
2023-03-02T03:26:56.239Z,17.80
2023-03-02T03:29:25.206Z,17.35
2023-03-02T03:31:53.712Z,16.95
2023-03-02T03:34:21.399Z,17.25
2023-03-02T03:36:47.991Z,13.90
2023-03-02T03:39:16.655Z,18.63
2023-03-02T03:41:43.560Z,17.35
2023-03-02T03:44:11.263Z,17.63
2023-03-02T03:46:38.023Z,16.52
2023-03-02T03:49:04.939Z,16.92
2023-03-02T03:51:35.244Z,15.50
2023-03-02T03:54:08.083Z,18.08
2023-03-02T03:56:39.287Z,16.05
2023-03-02T03:59:08.107Z,14.48
2023-03-02T04:01:46.227Z,17.95
2023-03-02T04:04:16.197Z,14.40
2023-03-02T04:06:43.106Z,15.27
2023-03-02T04:09:09.803Z,16.55
2023-03-02T04:11:39.269Z,13.35
2023-03-02T04:14:06.906Z,14.77
2023-03-02T04:16:33.745Z,16.45
2023-03-02T04:19:00.632Z,16.88
2023-03-02T04:21:27.912Z,16.02
2023-03-02T04:23:54.619Z,18.20
2023-03-02T04:26:21.183Z,18.70
2023-03-02T04:28:50.866Z,18.92
2023-03-02T04:31:17.932Z,15.70
2023-03-02T04:33:44.893Z,19.23
2023-03-02T04:36:11.491Z,18.42
2023-03-02T04:38:37.997Z,20.10
2023-03-02T04:41:04.816Z,20.60
2023-03-02T04:43:32.386Z,19.08
2023-03-02T04:45:59.337Z,17.85
2023-03-02T04:48:25.954Z,19.55
2023-03-02T04:50:52.629Z,18.10
2023-03-02T04:53:19.177Z,19.65
2023-03-02T04:55:45.883Z,19.65
2023-03-02T04:58:12.467Z,19.40
2023-03-02T05:00:39.284Z,19.52
2023-03-02T05:03:06.360Z,20.33
2023-03-02T05:05:33.542Z,20.40
2023-03-02T05:08:00.327Z,21.20
2023-03-02T05:10:27.846Z,19.25
2023-03-02T05:12:54.850Z,19.52
2023-03-02T05:15:23.041Z,21.08
2023-03-02T05:17:49.576Z,19.52
2023-03-02T05:20:16.643Z,22.23
2023-03-02T05:22:43.185Z,20.25
2023-03-02T05:25:10.009Z,19.80
2023-03-02T05:27:36.891Z,19.75
2023-03-02T05:30:07.248Z,21.15
2023-03-02T05:32:33.863Z,19.63
2023-03-02T05:35:00.503Z,20.10
2023-03-02T05:37:27.053Z,19.02
2023-03-02T05:39:53.561Z,20.02
2023-03-02T05:42:20.161Z,21.13
2023-03-02T05:44:46.803Z,20.08
2023-03-02T05:47:13.367Z,21.23
2023-03-02T05:49:39.897Z,21.17
2023-03-02T05:52:06.365Z,20.05
2023-03-02T05:54:32.893Z,20.45
2023-03-02T05:56:59.406Z,19.88
2023-03-02T05:59:25.881Z,19.35
2023-03-02T06:01:58.622Z,19.33
2023-03-02T06:04:26.165Z,20.08
2023-03-02T06:06:52.765Z,23.05
2023-03-02T06:09:19.318Z,22.17
2023-03-02T06:11:45.830Z,21.10
2023-03-02T06:14:12.393Z,20.10
2023-03-02T06:16:39.012Z,19.77
2023-03-02T06:19:05.589Z,21.30
2023-03-02T06:21:32.444Z,21.33
2023-03-02T06:23:58.996Z,21.38
2023-03-02T06:26:25.691Z,16.85
2023-03-02T06:28:53.928Z,22.52
2023-03-02T06:31:21.354Z,17.23
2023-03-02T06:33:47.947Z,20.80
2023-03-02T06:36:16.953Z,17.08
2023-03-02T06:38:43.591Z,21.17
2023-03-02T06:41:10.217Z,17.35
2023-03-02T06:43:36.823Z,17.50
2023-03-02T06:46:04.186Z,17.42
2023-03-02T06:48:30.751Z,16.02
2023-03-02T06:50:57.313Z,16.70
2023-03-02T06:53:23.868Z,15.82
2023-03-02T06:55:51.231Z,16.98
2023-03-02T06:58:17.984Z,14.00
2023-03-02T07:00:44.698Z,15.35
2023-03-02T07:03:11.521Z,15.20
2023-03-02T07:05:38.180Z,15.07
2023-03-02T07:08:05.039Z,14.23
2023-03-02T07:10:31.722Z,15.65
2023-03-02T07:12:58.232Z,16.05
2023-03-02T07:15:25.506Z,16.80
2023-03-02T07:17:52.136Z,15.65
2023-03-02T07:20:19.247Z,15.45
2023-03-02T07:22:46.116Z,15.32
2023-03-02T07:25:13.612Z,16.13
2023-03-02T07:27:40.579Z,15.38
2023-03-02T07:30:08.490Z,16.08
2023-03-02T07:32:35.305Z,16.95
2023-03-02T07:35:01.924Z,15.75
2023-03-02T07:37:28.453Z,16.10
2023-03-02T07:39:54.949Z,16.40
2023-03-02T07:42:21.494Z,15.73
2023-03-02T07:44:48.155Z,15.85
2023-03-02T07:47:14.734Z,14.52
2023-03-02T07:49:41.244Z,14.82
2023-03-02T07:52:07.828Z,14.32
2023-03-02T07:54:34.425Z,15.70
2023-03-02T07:57:00.978Z,15.80
2023-03-02T07:59:28.865Z,15.70
2023-03-02T08:01:56.649Z,16.05
2023-03-02T08:04:24.176Z,15.70
2023-03-02T08:06:50.766Z,14.85
2023-03-02T08:09:17.590Z,15.60
2023-03-02T08:11:44.966Z,15.90
2023-03-02T08:14:11.694Z,14.57
2023-03-02T08:16:39.564Z,16.42
2023-03-02T08:19:06.959Z,14.73
2023-03-02T08:21:33.855Z,15.98
2023-03-02T08:24:00.650Z,16.80
2023-03-02T08:26:27.260Z,15.57
2023-03-02T08:28:53.811Z,16.48
2023-03-02T08:31:20.447Z,17.33
2023-03-02T08:33:47.125Z,17.60
2023-03-02T08:36:16.897Z,15.77
2023-03-02T08:38:44.779Z,16.15
2023-03-02T08:41:14.378Z,17.48
2023-03-02T08:43:40.956Z,15.65
2023-03-02T08:46:07.816Z,15.60
2023-03-02T08:48:34.499Z,19.30
2023-03-02T08:51:07.195Z,15.77
2023-03-02T08:53:37.372Z,16.88
2023-03-02T08:56:07.280Z,15.88
2023-03-02T09:30:07.388Z,12.93
2023-03-02T09:32:34.069Z,14.02
2023-03-02T09:38:46.988Z,13.98
2023-03-02T10:08:15.249Z,11.70
2023-03-02T10:58:20.073Z,10.48
2023-03-02T11:04:31.007Z,9.85
2023-03-02T11:07:27.947Z,11.10
2023-03-02T11:13:42.188Z,10.32
2023-03-02T11:20:00.477Z,9.63
2023-03-02T11:22:38.678Z,10.25
2023-03-02T11:25:17.906Z,10.15
2023-03-02T11:27:46.097Z,10.75
2023-03-02T11:30:19.526Z,9.77
2023-03-02T11:33:04.070Z,10.85
2023-03-02T11:35:37.148Z,9.00
2023-03-02T11:38:21.556Z,9.50
2023-03-02T11:41:13.957Z,9.52
2023-03-02T11:43:40.454Z,8.57
2023-03-02T11:46:21.577Z,9.25
2023-03-02T11:48:53.527Z,8.88
2023-03-02T11:51:25.830Z,8.98
2023-03-02T11:54:02.723Z,8.07
2023-03-02T11:56:32.009Z,9.75
2023-03-02T11:59:02.971Z,8.40
2023-03-02T12:01:29.831Z,7.05
2023-03-02T12:04:07.819Z,8.00
2023-03-02T12:06:38.718Z,6.97
2023-03-02T12:09:22.205Z,6.93
2023-03-02T12:11:56.949Z,6.30
2023-03-02T12:14:37.223Z,6.90
2023-03-02T12:17:22.204Z,6.30
2023-03-02T12:19:50.959Z,6.18
2023-03-02T12:22:31.274Z,5.97
2023-03-02T12:25:20.843Z,6.50
2023-03-02T12:27:50.116Z,6.95
2023-03-02T12:30:23.759Z,8.55
2023-03-02T12:33:10.210Z,9.27
2023-03-02T12:35:37.814Z,6.63
2023-03-02T12:38:14.371Z,7.10
2023-03-02T12:41:13.356Z,6.30
2023-03-02T12:44:07.209Z,6.53
2023-03-02T12:46:36.122Z,6.13
2023-03-02T12:49:09.611Z,6.05
2023-03-02T12:51:54.922Z,5.95
2023-03-02T12:54:36.468Z,5.57
2023-03-02T12:57:16.312Z,5.55
2023-03-02T12:59:53.564Z,6.72
2023-03-02T13:02:30.303Z,5.68
2023-03-02T13:04:59.440Z,6.45
2023-03-02T13:07:43.468Z,6.07
2023-03-02T13:10:27.352Z,6.18
2023-03-02T13:12:54.141Z,5.72
2023-03-02T13:15:28.254Z,5.55
2023-03-02T13:18:24.059Z,5.60
2023-03-02T13:20:55.697Z,6.47
2023-03-02T13:27:22.383Z,5.55
2023-03-02T13:29:57.777Z,5.35
2023-03-02T13:32:40.560Z,4.70
2023-03-02T13:39:45.020Z,6.40
2023-03-02T13:47:00.019Z,4.63
2023-03-02T13:49:37.004Z,5.18
2023-03-02T13:52:16.766Z,5.65
2023-03-02T13:54:51.272Z,5.15
2023-03-02T13:57:32.775Z,4.50
2023-03-02T14:00:00.208Z,4.55
2023-03-02T14:02:28.873Z,4.60
2023-03-02T14:05:44.808Z,5.15
2023-03-02T14:16:01.110Z,5.22
2023-03-02T14:18:43.144Z,5.40
2023-03-02T14:21:17.550Z,4.78
2023-03-02T14:23:44.834Z,5.50
2023-03-02T14:26:32.237Z,4.97
2023-03-02T14:29:31.547Z,4.82
2023-03-02T14:32:07.864Z,5.25
2023-03-02T14:34:37.416Z,4.95
2023-03-02T14:37:14.871Z,5.32
2023-03-02T14:39:47.686Z,5.28
2023-03-02T14:46:13.388Z,5.35
2023-03-02T14:48:46.080Z,4.88
2023-03-02T14:51:43.183Z,5.75
2023-03-02T14:54:34.303Z,5.57
2023-03-02T14:57:11.128Z,6.35
2023-03-02T14:59:37.656Z,5.20
2023-03-02T15:02:19.069Z,5.43
2023-03-02T15:04:55.025Z,5.43
2023-03-02T15:07:23.301Z,5.65
2023-03-02T15:09:49.877Z,5.68
2023-03-02T15:12:16.371Z,5.30
2023-03-02T15:14:42.870Z,5.78
2023-03-02T15:17:10.591Z,5.15
2023-03-02T15:19:37.080Z,5.35
2023-03-02T15:22:04.835Z,5.50
2023-03-02T15:24:33.256Z,5.43
2023-03-02T15:27:00.503Z,5.20
2023-03-02T15:29:27.016Z,5.97
2023-03-02T15:31:58.174Z,5.65
2023-03-02T15:34:27.110Z,5.25
2023-03-02T15:36:53.618Z,6.22
2023-03-02T15:39:20.180Z,10.27
2023-03-02T15:41:49.162Z,5.95
2023-03-02T15:44:24.172Z,6.18
2023-03-02T15:47:02.608Z,6.07
2023-03-02T15:49:33.379Z,5.82
2023-03-02T15:52:00.150Z,6.32
2023-03-02T15:54:35.838Z,6.80
2023-03-02T15:57:05.046Z,5.68
2023-03-02T15:59:31.985Z,6.50
2023-03-02T16:01:59.677Z,7.00
2023-03-02T16:04:27.150Z,8.60
2023-03-02T16:06:55.094Z,6.22
2023-03-02T16:09:28.295Z,5.78
2023-03-02T16:12:33.101Z,5.55
2023-03-02T16:15:10.814Z,6.18
2023-03-02T16:17:58.128Z,6.97
2023-03-02T16:20:40.627Z,7.07
2023-03-02T16:23:22.659Z,6.32
2023-03-02T16:25:52.348Z,5.82
2023-03-02T16:28:22.165Z,6.03
2023-03-02T16:30:49.327Z,5.97
2023-03-02T16:33:33.529Z,6.03
2023-03-02T16:36:00.143Z,6.22
2023-03-02T16:38:27.670Z,7.47
2023-03-02T16:40:57.130Z,6.28
2023-03-02T16:43:26.466Z,7.82
2023-03-02T16:46:15.898Z,7.20
2023-03-02T16:48:44.041Z,7.05
2023-03-02T16:51:11.349Z,7.03
2023-03-02T16:59:37.722Z,7.40
2023-03-02T17:02:04.638Z,6.63
2023-03-02T17:04:34.859Z,7.20
2023-03-02T17:07:01.776Z,6.10
2023-03-02T17:09:31.254Z,6.50
2023-03-02T17:11:59.288Z,7.93
2023-03-02T17:14:26.380Z,6.63
2023-03-02T17:16:53.924Z,8.10
2023-03-02T17:19:20.673Z,8.82
2023-03-02T17:21:47.286Z,14.40
2023-03-02T17:24:14.067Z,11.23
2023-03-02T17:26:40.998Z,15.65
2023-03-02T17:29:08.126Z,16.42
2023-03-02T17:31:34.723Z,10.15
2023-03-02T17:34:01.315Z,8.57
2023-03-02T17:36:27.979Z,7.07
2023-03-02T17:38:54.550Z,7.25
2023-03-02T17:41:21.167Z,7.78
2023-03-02T17:43:47.935Z,6.90
2023-03-02T17:46:20.763Z,7.43
2023-03-02T17:48:49.851Z,7.45
2023-03-02T17:51:17.368Z,7.82
2023-03-02T17:53:46.184Z,8.15
2023-03-02T17:56:15.706Z,7.18
2023-03-02T17:58:45.319Z,6.45
2023-03-02T18:02:13.286Z,6.43
2023-03-02T18:04:14.793Z,5.72
2023-03-02T18:06:44.021Z,6.38
2023-03-02T18:09:12.017Z,6.60
2023-03-02T18:11:38.623Z,7.35
2023-03-02T18:14:05.326Z,5.80
2023-03-02T18:16:36.490Z,7.28
2023-03-02T18:19:03.114Z,8.27
2023-03-02T18:21:29.889Z,11.07
2023-03-02T18:23:57.831Z,10.43
2023-03-02T18:29:05.874Z,5.68
2023-03-02T18:31:42.607Z,7.35
2023-03-02T18:34:11.547Z,6.93
2023-03-02T18:36:38.500Z,6.72
2023-03-02T18:39:08.112Z,6.82
2023-03-02T18:41:34.615Z,7.20
2023-03-02T18:44:01.457Z,7.38
2023-03-02T18:46:30.589Z,7.63
2023-03-02T18:48:57.941Z,7.40
2023-03-02T18:51:25.590Z,7.10
2023-03-02T18:53:55.262Z,7.68
2023-03-02T18:56:22.851Z,6.85
2023-03-02T18:58:51.495Z,8.40
2023-03-02T19:01:18.408Z,6.93
2023-03-02T19:03:47.959Z,6.80
2023-03-02T19:06:15.344Z,8.02
2023-03-02T19:08:42.223Z,8.48
2023-03-02T19:11:09.003Z,8.00
2023-03-02T19:13:35.632Z,6.90
2023-03-02T19:16:08.007Z,7.28
2023-03-02T19:18:35.355Z,7.85
2023-03-02T19:21:04.299Z,8.32
2023-03-02T19:23:35.003Z,8.75
2023-03-02T19:26:03.325Z,11.48
2023-03-02T19:28:29.992Z,13.00
2023-03-02T19:30:56.843Z,10.18
2023-03-02T19:33:24.784Z,9.88
2023-03-02T19:36:06.265Z,9.10
2023-03-02T19:38:53.980Z,10.02
2023-03-02T19:41:23.860Z,10.13
2023-03-02T19:43:53.726Z,10.13
2023-03-02T19:46:20.380Z,9.55
2023-03-02T19:48:47.810Z,8.43
2023-03-02T19:51:15.760Z,9.75
2023-03-02T19:53:43.827Z,8.65
2023-03-02T19:56:14.337Z,8.90
2023-03-02T19:58:47.606Z,9.55
2023-03-02T20:01:26.662Z,9.55
2023-03-02T20:04:08.467Z,8.90
2023-03-02T20:12:27.082Z,10.07
2023-03-02T20:14:54.372Z,10.40
2023-03-02T20:17:21.137Z,11.13
2023-03-02T20:19:49.379Z,8.35
2023-03-02T20:22:16.610Z,9.27
2023-03-02T20:24:43.534Z,8.57
2023-03-02T20:27:12.693Z,9.90
2023-03-02T20:29:43.206Z,9.23
2023-03-02T20:32:12.563Z,9.68
2023-03-02T20:34:41.332Z,8.73
2023-03-02T20:37:08.460Z,8.63
2023-03-02T20:39:38.257Z,10.15
2023-03-02T20:42:06.598Z,8.88
2023-03-02T20:44:34.382Z,9.05
2023-03-02T20:47:08.323Z,9.35
2023-03-02T20:49:37.293Z,12.73
2023-03-02T20:52:05.596Z,11.38
2023-03-02T20:54:36.324Z,14.55
2023-03-02T20:57:05.358Z,9.68
2023-03-02T20:59:32.883Z,10.63
2023-03-02T21:02:00.143Z,11.63
2023-03-02T21:04:26.793Z,10.60
2023-03-02T21:06:53.523Z,10.43
2023-03-02T21:09:20.772Z,10.70
2023-03-02T21:11:48.101Z,11.57
2023-03-02T21:14:15.320Z,12.05
2023-03-02T21:16:43.666Z,11.95
2023-03-02T21:19:14.497Z,11.80
2023-03-02T21:21:42.572Z,11.45
2023-03-02T21:24:18.387Z,13.45
2023-03-02T21:26:46.503Z,11.55
2023-03-02T21:29:14.041Z,13.82
2023-03-02T21:31:42.302Z,16.25
2023-03-02T21:34:08.860Z,16.55
2023-03-02T21:36:35.551Z,16.05
2023-03-02T21:39:03.155Z,13.60
2023-03-02T21:41:29.936Z,15.40
2023-03-02T21:43:56.590Z,14.23
2023-03-02T21:46:23.681Z,15.60
2023-03-02T21:48:51.714Z,17.38
2023-03-02T21:51:18.685Z,12.98
2023-03-02T21:53:45.247Z,14.52
2023-03-02T21:56:20.479Z,15.32
2023-03-02T21:58:52.720Z,14.25
2023-03-02T22:01:19.926Z,15.45
2023-03-02T22:03:46.602Z,14.48
2023-03-02T22:06:25.590Z,15.93
2023-03-02T22:08:52.825Z,16.48
2023-03-02T22:11:38.560Z,17.52
2023-03-02T22:14:14.332Z,15.63
2023-03-02T22:16:45.102Z,17.13
2023-03-02T22:19:29.406Z,17.98
2023-03-02T22:22:00.509Z,18.20
2023-03-02T22:24:29.416Z,18.15
2023-03-02T22:27:21.873Z,18.38
2023-03-02T22:29:49.680Z,20.33
2023-03-02T22:32:24.441Z,19.27
2023-03-02T22:34:54.111Z,18.05
2023-03-02T22:37:23.432Z,19.73
2023-03-02T22:39:53.379Z,19.92
2023-03-02T22:42:26.942Z,19.15
2023-03-02T22:45:07.160Z,24.65
2023-03-02T22:47:33.685Z,21.92
2023-03-02T22:50:19.037Z,20.27
2023-03-02T22:52:45.607Z,20.60
2023-03-02T22:55:34.303Z,26.23
2023-03-02T22:58:25.471Z,21.30
2023-03-02T23:00:52.469Z,24.88
2023-03-02T23:03:21.828Z,19.67
2023-03-02T23:05:51.764Z,19.98
2023-03-02T23:08:23.006Z,20.63
2023-03-02T23:10:51.605Z,22.33
2023-03-02T23:13:21.354Z,26.77
2023-03-02T23:15:48.632Z,22.98
2023-03-02T23:18:23.191Z,22.33
2023-03-02T23:20:53.414Z,21.92
2023-03-02T23:23:22.064Z,27.67
2023-03-02T23:25:48.946Z,25.17
2023-03-02T23:28:15.510Z,22.33
2023-03-02T23:30:42.312Z,27.30
2023-03-02T23:33:09.099Z,22.15
2023-03-02T23:35:35.704Z,27.27
2023-03-02T23:38:02.280Z,24.13
2023-03-02T23:40:29.120Z,25.73
2023-03-02T23:42:56.084Z,23.77
2023-03-02T23:45:22.970Z,23.05
2023-03-02T23:47:49.585Z,23.58
2023-03-02T23:50:16.096Z,21.23
2023-03-02T23:52:42.627Z,25.10
2023-03-02T23:55:09.771Z,23.58
2023-03-02T23:57:36.310Z,23.00
